Terminal Aerodrome Forecast
Issued by NWS

Home | Current Version | Previous Version | Text Only | Print | Product List | Glossary On
Versions: 1 2 3 4 5 6 7 8 9 10 11 12 13
000
FTUS41 KCAR 041120
TAFFVE
TAF
KFVE 041120Z 0412/0512 17007KT P6SM BKN100
     FM041300 21010KT P6SM FEW250
     FM041600 22015G25KT P6SM SCT250
     FM042000 22015G28KT P6SM SCT100
     FM050100 25010KT P6SM VCSH SCT060 BKN100 OVC180=

USA.gov is the U.S. government's official web portal to all federal, state and local government web resources and services.